Terminal Aerodrome Forecast
Issued by NWS

Home | Current Version | Previous Version | Text Only | Print | Product List | Glossary On
Versions: 1 2 3 4 5 6 7 8 9 10 11 12 13 14 15 16 17 18
000
FTUS43 KIND 302300
TAFHUF
TAF
KHUF 302320Z 3100/3124 28006KT P6SM FEW050 SCT100
     FM310300 00000KT P6SM SKC
     FM310700 00000KT 3SM BR BCFG SKC
     FM311400 24005KT P6SM FEW050=

USA.gov is the U.S. government's official web portal to all federal, state and local government web resources and services.